Time;durP1;ratioP1;P1;durP2;ratioP2;P2;SDS_P1;SDS_P2;PMS_P1;PMS_P2;Temp;Humidity;BMP_temperature;BMP_pressure;BME280_temperature;BME280_humidity;BME280_pressure;Samples;Min_cycle;Max_cycle;Signal;HPM_P1;HPM_P2
2024/04/13 00:01:19;;;;;;;13.73;7.18;;;15.10;99.90;;;;;;13253671;26;20005;-84
2024/04/13 00:07:24;;;;;;;13.05;7.18;;;15.00;99.90;;;;;;13254405;26;20004;-83
2024/04/13 00:13:27;;;;;;;16.42;7.50;;;14.90;99.90;;;;;;13268618;26;20465;-83
2024/04/13 00:19:29;;;;;;;12.63;7.23;;;14.80;99.90;;;;;;13248440;26;20009;-82
2024/04/13 00:25:31;;;;;;;13.95;8.13;;;14.80;99.90;;;;;;13246667;26;20547;-83
2024/04/13 00:31:33;;;;;;;16.77;7.85;;;14.80;99.90;;;;;;13223121;26;19997;-83
2024/04/13 00:37:36;;;;;;;14.40;7.68;;;14.80;99.90;;;;;;13243476;26;20670;-83
2024/04/13 00:43:38;;;;;;;13.98;7.90;;;14.80;99.90;;;;;;13297449;26;20342;-84
2024/04/13 00:49:41;;;;;;;11.80;7.38;;;14.80;99.90;;;;;;13237914;26;20024;-84
2024/04/13 00:55:44;;;;;;;14.60;8.48;;;14.80;99.90;;;;;;13266595;26;20001;-83
2024/04/13 01:01:46;;;;;;;15.50;7.87;;;14.80;99.90;;;;;;13223449;26;20020;-83
2024/04/13 01:07:49;;;;;;;14.00;7.40;;;14.80;99.90;;;;;;13221863;26;20006;-83
2024/04/13 01:13:54;;;;;;;10.10;7.38;;;14.80;99.90;;;;;;13258050;26;20009;-83
2024/04/13 01:19:56;;;;;;;12.63;7.68;;;14.80;99.90;;;;;;13259695;26;20013;-83
2024/04/13 01:25:59;;;;;;;16.92;7.70;;;14.80;99.90;;;;;;13251180;26;20016;-83
2024/04/13 01:32:01;;;;;;;14.50;7.85;;;14.70;99.90;;;;;;13211384;26;20353;-83
2024/04/13 01:38:04;;;;;;;11.38;7.07;;;14.60;99.90;;;;;;13246379;26;20334;-82
2024/04/13 01:44:06;;;;;;;12.77;7.40;;;14.60;99.90;;;;;;13277459;26;20070;-83
2024/04/13 01:50:10;;;;;;;15.40;8.10;;;14.60;99.90;;;;;;13268298;26;20005;-83
2024/04/13 01:56:13;;;;;;;13.27;7.22;;;14.50;99.90;;;;;;13264341;26;20001;-84
2024/04/13 02:02:15;;;;;;;12.65;7.80;;;14.40;99.90;;;;;;13258193;26;20016;-82
2024/04/13 02:08:17;;;;;;;14.82;7.70;;;14.40;99.90;;;;;;13277228;26;20050;-83
2024/04/13 02:14:19;;;;;;;12.07;7.50;;;14.30;99.90;;;;;;13248860;26;20009;-83
2024/04/13 02:20:21;;;;;;;14.57;6.93;;;14.20;99.90;;;;;;13265981;26;20016;-84
2024/04/13 02:26:24;;;;;;;12.38;7.75;;;14.10;99.90;;;;;;13239889;26;20024;-83
2024/04/13 02:32:26;;;;;;;14.32;6.68;;;14.20;99.90;;;;;;13318052;26;20008;-85
2024/04/13 02:38:29;;;;;;;13.45;6.93;;;14.20;99.90;;;;;;13300089;26;20020;-82
2024/04/13 02:44:31;;;;;;;14.20;7.38;;;14.20;99.90;;;;;;13250247;26;20019;-84
2024/04/13 02:50:34;;;;;;;10.90;7.05;;;14.20;99.90;;;;;;13249405;26;20005;-83
2024/04/13 02:56:36;;;;;;;12.30;7.57;;;14.30;99.90;;;;;;13260580;26;20461;-83
2024/04/13 03:02:38;;;;;;;11.95;7.78;;;14.20;99.90;;;;;;13260126;26;20447;-83
2024/04/13 03:08:41;;;;;;;12.18;7.75;;;14.10;99.90;;;;;;13252557;26;20000;-82
2024/04/13 03:14:44;;;;;;;12.52;8.10;;;14.10;99.90;;;;;;13260440;26;20472;-83
2024/04/13 03:20:46;;;;;;;11.68;7.93;;;14.20;99.90;;;;;;13231061;26;20012;-84
2024/04/13 03:26:48;;;;;;;14.32;7.95;;;14.20;99.90;;;;;;13243817;26;20334;-83
2024/04/13 03:32:50;;;;;;;16.02;7.93;;;14.20;99.90;;;;;;13231359;26;20018;-82
2024/04/13 03:38:56;;;;;;;15.30;8.23;;;14.10;99.90;;;;;;13256864;26;20019;-83
2024/04/13 03:44:58;;;;;;;14.25;8.02;;;14.10;99.90;;;;;;13259835;26;20005;-83
2024/04/13 03:51:01;;;;;;;11.40;7.53;;;14.10;99.90;;;;;;13234550;26;20338;-83
2024/04/13 03:57:03;;;;;;;16.93;8.43;;;14.10;99.90;;;;;;13295942;26;20631;-82
2024/04/13 04:03:07;;;;;;;13.73;7.77;;;14.10;99.90;;;;;;13252773;26;20345;-84
2024/04/13 04:09:10;;;;;;;14.88;7.03;;;14.00;99.90;;;;;;13257445;26;20028;-83
2024/04/13 04:15:13;;;;;;;10.30;7.25;;;14.00;99.90;;;;;;13270637;26;20001;-82
2024/04/13 04:21:16;;;;;;;11.43;7.13;;;14.00;99.90;;;;;;13259415;26;20341;-83
2024/04/13 04:27:20;;;;;;;10.70;6.90;;;13.90;99.90;;;;;;13249774;26;20004;-84
2024/04/13 04:33:22;;;;;;;13.43;6.97;;;13.90;99.90;;;;;;13282375;26;20005;-83
2024/04/13 04:39:24;;;;;;;14.25;7.07;;;13.90;99.90;;;;;;13235143;26;20012;-83
2024/04/13 04:45:27;;;;;;;10.48;6.43;;;14.00;99.90;;;;;;13247509;26;20044;-82
2024/04/13 04:51:30;;;;;;;15.02;6.72;;;14.00;99.90;;;;;;13262382;26;20075;-84
2024/04/13 04:57:32;;;;;;;16.40;6.75;;;14.10;99.90;;;;;;13258754;26;20006;-82
2024/04/13 05:03:35;;;;;;;14.13;6.60;;;14.10;99.90;;;;;;13286967;26;20004;-83
2024/04/13 05:09:37;;;;;;;11.93;6.40;;;14.10;99.90;;;;;;13248064;26;20732;-83
2024/04/13 05:15:40;;;;;;;13.43;5.90;;;14.10;99.90;;;;;;13253168;26;20002;-84
2024/04/13 05:21:43;;;;;;;11.15;5.72;;;14.30;99.90;;;;;;13263031;26;20045;-82
2024/04/13 05:27:45;;;;;;;8.27;5.40;;;15.00;99.90;;;;;;13234455;26;20353;-82
2024/04/13 05:33:47;;;;;;;10.55;5.20;;;15.20;99.90;;;;;;13261536;26;20000;-83
2024/04/13 05:39:51;;;;;;;12.52;6.28;;;15.30;99.90;;;;;;13243698;26;20025;-83
2024/04/13 05:45:53;;;;;;;8.70;5.68;;;15.20;99.90;;;;;;13256333;26;20020;-82
2024/04/13 05:51:56;;;;;;;13.88;6.70;;;15.20;99.90;;;;;;13289282;26;20009;-83
2024/04/13 05:57:58;;;;;;;10.75;6.50;;;15.30;99.90;;;;;;13270682;26;20012;-83
2024/04/13 06:04:00;;;;;;;11.43;6.63;;;15.30;99.90;;;;;;13256300;26;20021;-83
2024/04/13 06:10:05;;;;;;;10.73;6.10;;;15.30;99.90;;;;;;13289392;26;20020;-83
2024/04/13 06:16:07;;;;;;;10.93;6.20;;;15.20;99.90;;;;;;13255338;26;20033;-83
2024/04/13 06:22:10;;;;;;;9.20;5.63;;;15.30;99.90;;;;;;13245125;26;20436;-82
2024/04/13 06:28:12;;;;;;;12.00;6.15;;;15.30;99.90;;;;;;13218865;26;20017;-84
2024/04/13 06:34:15;;;;;;;10.77;5.63;;;15.50;99.90;;;;;;13250999;26;20005;-83
2024/04/13 06:40:17;;;;;;;8.48;5.60;;;15.70;99.90;;;;;;13249153;26;20004;-83
2024/04/13 06:46:20;;;;;;;11.52;5.75;;;15.80;99.90;;;;;;13260425;26;20019;-82
2024/04/13 06:52:22;;;;;;;11.55;5.10;;;16.00;99.90;;;;;;13266884;26;20013;-82
2024/04/13 06:58:24;;;;;;;11.65;7.18;;;16.10;99.90;;;;;;13269316;26;20055;-82
2024/04/13 07:04:26;;;;;;;7.45;5.82;;;16.30;99.90;;;;;;13267243;26;20013;-83
2024/04/13 07:10:28;;;;;;;9.30;6.55;;;16.30;99.90;;;;;;13262846;26;20000;-82
2024/04/13 07:16:32;;;;;;;7.88;5.60;;;16.40;99.90;;;;;;13273635;26;20085;-85
2024/04/13 07:22:34;;;;;;;;;;;16.40;99.90;;;;;;13285019;26;20008;-84
2024/04/13 07:28:36;;;;;;;10.50;5.30;;;16.40;99.90;;;;;;13229311;26;19926;-83
2024/04/13 07:34:40;;;;;;;8.07;4.22;;;16.50;99.90;;;;;;13261792;26;20343;-83
2024/04/13 07:40:42;;;;;;;;;;;16.70;99.90;;;;;;13272880;26;20352;-83
2024/04/13 07:46:46;;;;;;;6.85;4.13;;;16.70;99.90;;;;;;13383198;21;19925;-79
2024/04/13 07:59:35;;;;;;;8.63;4.20;;;16.90;99.90;;;;;;13259149;21;20016;-85
2024/04/13 08:05:37;;;;;;;8.35;3.85;;;16.90;99.90;;;;;;13261073;26;20001;-85
2024/04/13 08:11:39;;;;;;;6.75;3.80;;;17.00;99.90;;;;;;13200870;26;20019;-87
2024/04/13 08:17:41;;;;;;;6.32;4.18;;;17.20;99.90;;;;;;13200944;26;20009;-86
2024/04/13 08:23:43;;;;;;;6.35;3.67;;;17.50;99.90;;;;;;13195992;26;20002;-86
2024/04/13 08:29:49;;;;;;;7.80;3.78;;;17.50;99.90;;;;;;13152232;26;20016;-89
2024/04/13 08:36:05;;;;;;;5.63;3.38;;;17.70;99.90;;;;;;13202663;26;19998;-88
2024/04/13 08:42:13;;;;;;;5.85;4.10;;;17.60;99.90;;;;;;13170513;26;20335;-85
2024/04/13 08:48:16;;;;;;;6.85;4.10;;;17.80;99.90;;;;;;13186722;26;20354;-88
2024/04/13 08:54:18;;;;;;;9.38;4.70;;;17.80;99.90;;;;;;13197502;26;20025;-87
2024/04/13 09:00:22;;;;;;;5.95;4.13;;;18.10;99.90;;;;;;13192465;26;20008;-89
2024/04/13 09:06:25;;;;;;;6.90;4.00;;;18.10;99.90;;;;;;13194448;26;20015;-89
2024/04/13 09:12:27;;;;;;;6.45;4.30;;;18.20;99.90;;;;;;13183774;26;20006;-89
2024/04/13 09:18:29;;;;;;;10.15;4.30;;;18.30;99.90;;;;;;13164397;26;20025;-89
2024/04/13 09:24:42;;;;;;;5.55;3.95;;;18.30;99.90;;;;;;13171169;26;20006;-87
2024/04/13 09:30:47;;;;;;;5.30;3.73;;;18.40;99.90;;;;;;13163148;26;20081;-87
2024/04/13 09:36:49;;;;;;;6.55;4.45;;;18.60;99.90;;;;;;13180281;26;20468;-86
2024/04/13 09:42:51;;;;;;;5.47;3.72;;;18.80;99.90;;;;;;13181127;26;20013;-86
2024/04/13 09:48:58;;;;;;;7.35;3.70;;;18.80;99.90;;;;;;13186802;26;20003;-87
2024/04/13 09:55:02;;;;;;;4.68;3.38;;;19.10;99.90;;;;;;13197232;26;20017;-86
2024/04/13 10:01:05;;;;;;;5.55;3.63;;;19.30;99.90;;;;;;13183209;26;20013;-88
2024/04/13 10:07:10;;;;;;;;;;;19.30;99.90;;;;;;13171573;26;20021;-84
2024/04/13 10:13:22;;;;;;;6.88;4.55;;;19.10;99.90;;;;;;13196875;26;19965;-85
2024/04/13 10:19:25;;;;;;;6.60;4.43;;;19.20;99.90;;;;;;13174960;26;20001;-86
2024/04/13 10:25:31;;;;;;;7.43;4.63;;;19.40;99.90;;;;;;13176235;26;20102;-86
2024/04/13 10:31:33;;;;;;;6.90;4.70;;;19.60;99.90;;;;;;13163823;26;20025;-85
2024/04/13 10:37:35;;;;;;;7.28;4.63;;;19.70;99.90;;;;;;13169611;26;20573;-86
2024/04/13 10:43:38;;;;;;;6.53;4.10;;;19.70;99.90;;;;;;13182616;26;20009;-86
2024/04/13 10:49:42;;;;;;;7.43;4.23;;;19.70;99.90;;;;;;13170177;26;20026;-88
2024/04/13 10:55:58;;;;;;;6.78;4.30;;;19.80;99.90;;;;;;13178901;26;20084;-91
2024/04/13 11:02:00;;;;;;;6.70;4.50;;;19.90;99.90;;;;;;13165988;26;20006;-86
2024/04/13 11:08:03;;;;;;;9.85;4.35;;;20.00;99.90;;;;;;13165165;26;20016;-86
2024/04/13 11:14:05;;;;;;;7.53;4.75;;;20.30;99.90;;;;;;13174351;26;19998;-86
2024/04/13 11:20:07;;;;;;;10.30;5.07;;;20.30;99.90;;;;;;13174288;26;20438;-86
2024/04/13 11:26:09;;;;;;;9.13;5.30;;;20.20;99.90;;;;;;13168531;26;20045;-86
2024/04/13 11:32:11;;;;;;;7.97;4.72;;;20.10;99.90;;;;;;13150175;26;20013;-85
2024/04/13 11:38:17;;;;;;;7.93;4.40;;;20.10;99.90;;;;;;13172761;26;20079;-85
2024/04/13 11:44:19;;;;;;;6.20;4.35;;;20.40;99.90;;;;;;13164632;26;20006;-85
2024/04/13 11:50:22;;;;;;;7.85;3.70;;;20.60;99.90;;;;;;13168030;26;20006;-88
2024/04/13 11:56:24;;;;;;;7.90;3.85;;;20.70;99.90;;;;;;13179101;26;20017;-85
2024/04/13 12:02:26;;;;;;;7.85;3.67;;;20.80;99.90;;;;;;13159474;26;20459;-87
2024/04/13 12:08:29;;;;;;;7.13;3.58;;;20.80;99.90;;;;;;13187328;26;20007;-89
2024/04/13 12:14:31;;;;;;;6.93;3.38;;;20.70;99.90;;;;;;13225466;26;20260;-90
2024/04/13 12:20:47;;;;;;;5.65;3.50;;;20.80;99.90;;;;;;13230006;26;20084;-87
2024/04/13 12:26:50;;;;;;;6.50;3.42;;;21.10;99.90;;;;;;13187733;26;20010;-90
2024/04/13 12:32:52;;;;;;;7.32;3.15;;;21.00;99.90;;;;;;13161805;26;20395;-87
2024/04/13 12:38:54;;;;;;;6.65;3.42;;;21.20;99.90;;;;;;13164298;26;20000;-91
2024/04/13 12:44:58;;;;;;;6.95;3.47;;;21.40;99.90;;;;;;13200050;26;20006;-86
2024/04/13 12:51:01;;;;;;;7.65;3.35;;;21.30;99.90;;;;;;13189293;26;20011;-91
2024/04/13 12:57:07;;;;;;;5.57;2.90;;;21.60;99.90;;;;;;13189630;26;20009;-88
2024/04/13 13:03:11;;;;;;;7.07;3.15;;;21.90;99.90;;;;;;13172614;26;20006;-89
2024/04/13 13:09:13;;;;;;;7.03;2.90;;;22.00;99.90;;;;;;13133251;26;20006;-86
2024/04/13 13:15:16;;;;;;;4.60;2.70;;;22.10;99.90;;;;;;13176087;26;20013;-87
2024/04/13 13:21:17;;;;;;;7.03;2.70;;;22.00;99.90;;;;;;13182439;26;20709;-87
2024/04/13 13:27:19;;;;;;;4.97;2.72;;;22.10;99.90;;;;;;13166177;26;20041;-89
2024/04/13 13:33:22;;;;;;;7.68;2.83;;;21.80;99.90;;;;;;13172076;26;20002;-87
2024/04/13 13:39:24;;;;;;;5.00;2.47;;;21.80;99.90;;;;;;13168420;26;20344;-86
2024/04/13 13:45:26;;;;;;;6.00;2.50;;;21.90;99.90;;;;;;13173804;26;20002;-88
2024/04/13 13:51:30;;;;;;;4.57;2.15;;;22.30;99.90;;;;;;13192111;26;20101;-86
2024/04/13 13:57:32;;;;;;;5.03;2.50;;;22.40;99.90;;;;;;13148379;26;20057;-86
2024/04/13 14:03:34;;;;;;;5.75;3.10;;;22.30;99.90;;;;;;13158635;26;20013;-87
2024/04/13 14:09:36;;;;;;;6.35;2.60;;;22.30;99.90;;;;;;13156956;26;20028;-86
2024/04/13 14:15:39;;;;;;;6.43;2.72;;;22.40;99.90;;;;;;13177783;26;20021;-88
2024/04/13 14:21:41;;;;;;;7.30;2.67;;;22.30;99.90;;;;;;13172057;26;20017;-86
2024/04/13 14:27:43;;;;;;;5.88;2.30;;;22.00;99.90;;;;;;13150343;26;20096;-86
2024/04/13 14:33:45;;;;;;;7.63;2.33;;;21.90;99.90;;;;;;13173531;26;20009;-87
2024/04/13 14:39:47;;;;;;;4.95;2.85;;;22.10;99.90;;;;;;13172390;26;20397;-86
2024/04/13 14:45:49;;;;;;;3.23;1.90;;;22.30;99.90;;;;;;13159135;26;20080;-86
2024/04/13 14:51:51;;;;;;;5.43;2.20;;;22.50;99.90;;;;;;13218198;26;20009;-85
2024/04/13 14:57:54;;;;;;;4.43;2.58;;;22.50;99.90;;;;;;13178950;26;20025;-86
2024/04/13 15:03:57;;;;;;;4.75;2.65;;;22.40;99.90;;;;;;13175687;26;20021;-84
2024/04/13 15:09:59;;;;;;;4.50;2.25;;;22.30;99.90;;;;;;13173928;26;20030;-87
2024/04/13 15:16:02;;;;;;;5.50;2.20;;;22.40;99.90;;;;;;13190897;26;20017;-87
2024/04/13 15:22:09;;;;;;;3.35;2.33;;;22.70;99.90;;;;;;13172317;26;20002;-87
2024/04/13 15:28:11;;;;;;;6.40;2.72;;;22.80;99.90;;;;;;13149024;26;20002;-86
2024/04/13 15:34:13;;;;;;;3.85;2.50;;;22.70;99.90;;;;;;13175127;26;20006;-87
2024/04/13 15:40:15;;;;;;;5.28;2.65;;;22.80;99.90;;;;;;13183604;26;20323;-85
2024/04/13 15:46:19;;;;;;;4.22;2.25;;;22.90;99.90;;;;;;13203643;26;20003;-85
2024/04/13 15:52:21;;;;;;;2.97;2.33;;;23.20;99.90;;;;;;13208095;26;20001;-86
2024/04/13 15:58:24;;;;;;;3.97;2.47;;;23.00;99.90;;;;;;13185864;26;20407;-86
2024/04/13 16:04:26;;;;;;;4.82;2.65;;;22.90;99.90;;;;;;13172080;26;20020;-84
2024/04/13 16:10:28;;;;;;;7.37;3.53;;;22.80;99.90;;;;;;13174422;26;20050;-87
2024/04/13 16:16:30;;;;;;;4.10;2.58;;;22.80;99.90;;;;;;13165867;26;19997;-84
2024/04/13 16:22:32;;;;;;;5.10;2.60;;;22.50;99.90;;;;;;13192334;26;20020;-85
2024/04/13 16:28:34;;;;;;;3.67;2.50;;;22.40;99.90;;;;;;13166888;26;20006;-85
2024/04/13 16:34:36;;;;;;;7.15;2.78;;;22.20;99.90;;;;;;13191630;26;20443;-86
2024/04/13 16:40:38;;;;;;;4.15;2.50;;;22.10;99.90;;;;;;13182553;26;20041;-87
2024/04/13 16:46:40;;;;;;;6.18;2.75;;;22.10;99.90;;;;;;13187642;26;20006;-85
2024/04/13 16:52:43;;;;;;;4.65;2.60;;;21.80;99.90;;;;;;13180582;26;20021;-85
2024/04/13 16:58:46;;;;;;;5.55;2.50;;;21.80;99.90;;;;;;13178334;26;20005;-87
2024/04/13 17:04:48;;;;;;;5.35;2.65;;;21.60;99.90;;;;;;13153749;26;20008;-87
2024/04/13 17:10:50;;;;;;;4.50;2.58;;;21.50;99.90;;;;;;13141233;26;20016;-85
2024/04/13 17:16:52;;;;;;;6.10;2.60;;;21.30;99.90;;;;;;13174585;26;20006;-86
2024/04/13 17:22:55;;;;;;;4.10;2.53;;;21.20;99.90;;;;;;13158415;26;20014;-86
2024/04/13 17:28:57;;;;;;;4.57;2.90;;;21.10;99.90;;;;;;13139775;26;19997;-86
2024/04/13 17:34:59;;;;;;;5.80;3.03;;;20.90;99.90;;;;;;13173095;26;20016;-86
2024/04/13 17:41:02;;;;;;;7.30;2.60;;;20.80;99.90;;;;;;13193493;26;20020;-86
2024/04/13 17:47:04;;;;;;;6.10;2.60;;;20.70;99.90;;;;;;13139040;26;20002;-86
2024/04/13 17:53:06;;;;;;;5.07;2.42;;;20.60;99.90;;;;;;13172673;26;20005;-86
2024/04/13 17:59:08;;;;;;;8.70;3.20;;;20.50;99.90;;;;;;13167394;26;20002;-85
2024/04/13 18:05:10;;;;;;;7.80;2.83;;;20.40;99.90;;;;;;13187303;26;20004;-85
2024/04/13 18:11:12;;;;;;;5.85;2.55;;;20.30;99.90;;;;;;13178476;26;20101;-85
2024/04/13 18:17:14;;;;;;;5.32;2.47;;;20.10;99.90;;;;;;13185670;26;20021;-86
2024/04/13 18:23:16;;;;;;;5.43;3.17;;;20.00;99.90;;;;;;13181591;26;20002;-85
2024/04/13 18:29:18;;;;;;;7.05;3.10;;;19.90;99.90;;;;;;13152367;26;20057;-85
2024/04/13 18:35:20;;;;;;;5.03;3.13;;;20.00;99.90;;;;;;13213913;26;20021;-87
2024/04/13 18:41:22;;;;;;;7.18;3.25;;;19.90;99.90;;;;;;13168977;26;20006;-85
2024/04/13 18:47:24;;;;;;;5.57;3.40;;;19.80;99.90;;;;;;13171283;26;20469;-86
2024/04/13 18:53:27;;;;;;;7.05;4.32;;;19.80;99.90;;;;;;13178213;26;20354;-85
2024/04/13 18:59:29;;;;;;;5.37;3.30;;;19.70;99.90;;;;;;13175001;26;20005;-85
2024/04/13 19:05:31;;;;;;;4.03;3.22;;;19.50;99.90;;;;;;13183560;26;20334;-85
2024/04/13 19:11:32;;;;;;;6.57;3.55;;;19.30;99.90;;;;;;13181940;26;20104;-85
2024/04/13 19:17:35;;;;;;;4.55;3.30;;;19.20;99.90;;;;;;13209371;26;19998;-86
2024/04/13 19:23:40;;;;;;;4.70;3.30;;;19.20;99.90;;;;;;13207322;26;20017;-86
2024/04/13 19:29:42;;;;;;;8.40;3.85;;;19.10;99.90;;;;;;13180205;26;20005;-86
2024/04/13 19:35:44;;;;;;;9.30;3.85;;;18.90;99.90;;;;;;13177101;26;20013;-86
2024/04/13 19:41:46;;;;;;;8.07;3.60;;;18.80;99.90;;;;;;13193181;26;20013;-85
2024/04/13 19:47:48;;;;;;;6.10;4.13;;;19.00;99.90;;;;;;13174239;26;20451;-85
2024/04/13 19:53:52;;;;;;;5.22;3.05;;;19.00;99.90;;;;;;13193898;26;20005;-85
2024/04/13 19:59:54;;;;;;;7.03;3.70;;;19.00;99.90;;;;;;13177046;26;20573;-85
2024/04/13 20:05:57;;;;;;;7.45;3.83;;;18.90;99.90;;;;;;13165445;26;20009;-86
2024/04/13 20:11:59;;;;;;;7.03;3.25;;;18.90;99.90;;;;;;13187267;26;20499;-86
2024/04/13 20:24:22;;;;;;;6.60;4.20;;;18.70;99.90;;;;;;13172162;26;20020;-85
2024/04/13 20:30:24;;;;;;;7.25;4.07;;;18.80;99.90;;;;;;13144341;26;20342;-85
2024/04/13 20:36:26;;;;;;;15.65;3.70;;;18.80;99.90;;;;;;13169050;26;21172;-85
2024/04/13 20:42:28;;;;;;;5.65;3.50;;;18.80;99.90;;;;;;13201987;26;20033;-85
2024/04/13 20:48:30;;;;;;;5.82;3.20;;;18.90;99.90;;;;;;13156502;26;20002;-84
2024/04/13 20:54:33;;;;;;;10.13;3.70;;;19.00;99.90;;;;;;13190724;26;20005;-86
2024/04/13 21:00:38;;;;;;;6.05;3.50;;;19.00;99.90;;;;;;13179574;26;20006;-87
2024/04/13 21:06:40;;;;;;;9.65;3.30;;;19.00;99.90;;;;;;13176943;26;19998;-86
2024/04/13 21:12:42;;;;;;;6.00;3.20;;;18.90;99.90;;;;;;13191109;26;20010;-88
2024/04/13 21:18:45;;;;;;;6.13;3.60;;;18.90;99.90;;;;;;13180741;26;20449;-85
2024/04/13 21:24:47;;;;;;;8.57;3.53;;;18.90;99.90;;;;;;13180245;26;20057;-86
2024/04/13 21:30:49;;;;;;;7.00;3.58;;;18.80;99.90;;;;;;13148758;26;20013;-86
2024/04/13 21:36:51;;;;;;;6.30;3.17;;;18.70;99.90;;;;;;13184949;26;20088;-86
2024/04/13 21:42:54;;;;;;;7.28;3.20;;;18.60;99.90;;;;;;13201058;26;20437;-87
2024/04/13 21:48:56;;;;;;;7.13;3.45;;;18.50;99.90;;;;;;13186838;26;20006;-87
2024/04/13 21:54:58;;;;;;;7.90;3.42;;;18.50;99.90;;;;;;13191941;26;20017;-89
2024/04/13 22:01:03;;;;;;;5.88;3.00;;;18.50;99.90;;;;;;13173807;26;20025;-86
2024/04/13 22:07:06;;;;;;;9.02;3.78;;;18.50;99.90;;;;;;13174425;26;20013;-88
2024/04/13 22:13:08;;;;;;;8.77;3.35;;;18.60;99.90;;;;;;13198100;26;20009;-85
2024/04/13 22:19:10;;;;;;;5.13;3.53;;;18.60;99.90;;;;;;13161516;26;20037;-85
2024/04/13 22:25:20;;;;;;;6.93;3.73;;;18.50;99.90;;;;;;13165160;26;20451;-86
2024/04/13 22:31:23;;;;;;;7.45;3.63;;;18.30;99.90;;;;;;13162711;26;20016;-86
2024/04/13 22:37:25;;;;;;;5.55;3.28;;;18.30;99.90;;;;;;13173160;26;20374;-87
2024/04/13 22:43:27;;;;;;;4.60;3.40;;;18.40;99.90;;;;;;13193013;26;20454;-86
2024/04/13 22:49:29;;;;;;;7.85;3.60;;;18.50;99.90;;;;;;13200483;26;20006;-84
2024/04/13 22:55:32;;;;;;;7.55;3.33;;;18.40;99.90;;;;;;13180152;26;20032;-87
2024/04/13 23:01:34;;;;;;;6.60;3.92;;;18.30;99.90;;;;;;13197671;26;20017;-87
2024/04/13 23:07:36;;;;;;;10.70;3.55;;;18.40;99.90;;;;;;13171256;26;20438;-87
2024/04/13 23:13:38;;;;;;;6.50;3.72;;;18.60;99.90;;;;;;13188882;26;20006;-86
2024/04/13 23:19:40;;;;;;;6.53;3.45;;;18.60;99.90;;;;;;13176621;26;20019;-86
2024/04/13 23:25:45;;;;;;;10.40;3.97;;;18.60;99.90;;;;;;13169464;26;20328;-85
2024/04/13 23:31:47;;;;;;;6.65;3.88;;;18.50;99.90;;;;;;13150943;26;20021;-88
2024/04/13 23:37:49;;;;;;;8.35;3.97;;;18.40;99.90;;;;;;13183325;26;20002;-89
2024/04/13 23:43:55;;;;;;;7.88;4.82;;;18.20;99.90;;;;;;13204755;26;20006;-89
2024/04/13 23:49:58;;;;;;;6.47;4.40;;;18.10;99.90;;;;;;13223049;26;20012;-86
2024/04/13 23:56:00;;;;;;;7.72;4.20;;;18.00;99.90;;;;;;13169726;26;20010;-90
